Arcola, Georgia
Current Conditions -  °F | °C
As of 4:35 AM on Friday 28 Nov 2014 (Local Time) from KCWV Reporting Station
Clear Clear  
Wind Chill: 34°   Ceiling: Unl
Heat Index: 34°   Visibility: 10mi
Dew Point: 19°   Wind: 3mph
Humidity: 56%   Direction: 300°WNW
Pressure: 30.36"   Gusts: NA
Location:  32.2794°N, 81.623°W
Report Text: KCWV 280935Z AUTO 30003KT 10SM CLR 01/M07 A3036 RMK AO2
Loading
Personal Weather Stations






























Interactive Weather Map New forecast layout! Learn more

10-Day Weather Forecast

Advertisements
Track Severe Weather on mobile